Terminal Aerodrome Forecast
Issued by NWS

Home | Current Version | Previous Version | Graphics & Text | Print | Product List | Glossary On
Versions: 1 2 3 4 5 6 7 8 9 10 11 12 13 14
416
FTUS43 KOAX 090340 AAA
TAFCDR
TAF AMD
KCDR 090340Z 0904/0924 30010KT P6SM SCT250
     FM091600 29014G24KT P6SM SKC=

USA.gov is the U.S. government's official web portal to all federal, state and local government web resources and services.